sensor_id;sensor_type;location;lat;lon;timestamp;P1;durP1;ratioP1;P2;durP2;ratioP2
37409;SDS011;23275;48.914;12.566;2024-03-02T00:00:20;60.00;;;23.80;;
37409;SDS011;23275;48.914;12.566;2024-03-02T00:02:47;51.05;;;23.60;;
37409;SDS011;23275;48.914;12.566;2024-03-02T00:05:17;55.60;;;24.08;;
37409;SDS011;23275;48.914;12.566;2024-03-02T00:07:45;57.22;;;24.50;;
37409;SDS011;23275;48.914;12.566;2024-03-02T00:10:14;52.63;;;22.90;;
37409;SDS011;23275;48.914;12.566;2024-03-02T00:12:44;57.50;;;24.27;;
37409;SDS011;23275;48.914;12.566;2024-03-02T00:17:44;54.00;;;23.45;;
37409;SDS011;23275;48.914;12.566;2024-03-02T00:20:18;55.38;;;24.05;;
37409;SDS011;23275;48.914;12.566;2024-03-02T00:22:47;52.85;;;24.50;;
37409;SDS011;23275;48.914;12.566;2024-03-02T00:25:12;67.75;;;26.00;;
37409;SDS011;23275;48.914;12.566;2024-03-02T00:27:38;65.38;;;25.58;;
37409;SDS011;23275;48.914;12.566;2024-03-02T00:30:50;59.72;;;26.08;;
37409;SDS011;23275;48.914;12.566;2024-03-02T00:33:11;65.63;;;26.58;;
37409;SDS011;23275;48.914;12.566;2024-03-02T00:35:36;69.05;;;26.88;;
37409;SDS011;23275;48.914;12.566;2024-03-02T00:38:05;63.08;;;26.60;;
37409;SDS011;23275;48.914;12.566;2024-03-02T00:40:31;60.10;;;25.40;;
37409;SDS011;23275;48.914;12.566;2024-03-02T00:42:57;65.50;;;25.33;;
37409;SDS011;23275;48.914;12.566;2024-03-02T00:45:23;62.67;;;25.88;;
37409;SDS011;23275;48.914;12.566;2024-03-02T00:47:50;63.97;;;25.15;;
37409;SDS011;23275;48.914;12.566;2024-03-02T00:50:16;66.25;;;26.20;;
37409;SDS011;23275;48.914;12.566;2024-03-02T00:52:41;63.05;;;26.60;;
37409;SDS011;23275;48.914;12.566;2024-03-02T00:55:07;58.20;;;25.40;;
37409;SDS011;23275;48.914;12.566;2024-03-02T00:57:34;59.92;;;25.92;;
37409;SDS011;23275;48.914;12.566;2024-03-02T01:00:00;62.88;;;27.23;;
37409;SDS011;23275;48.914;12.566;2024-03-02T01:02:26;58.70;;;25.65;;
37409;SDS011;23275;48.914;12.566;2024-03-02T01:04:51;58.10;;;24.90;;
37409;SDS011;23275;48.914;12.566;2024-03-02T01:07:17;62.58;;;27.00;;
37409;SDS011;23275;48.914;12.566;2024-03-02T01:09:43;53.85;;;25.70;;
37409;SDS011;23275;48.914;12.566;2024-03-02T01:12:08;62.20;;;25.40;;
37409;SDS011;23275;48.914;12.566;2024-03-02T01:14:34;65.55;;;26.45;;
37409;SDS011;23275;48.914;12.566;2024-03-02T01:17:00;61.50;;;25.58;;
37409;SDS011;23275;48.914;12.566;2024-03-02T01:19:29;56.00;;;25.95;;
37409;SDS011;23275;48.914;12.566;2024-03-02T01:21:55;57.70;;;25.27;;
37409;SDS011;23275;48.914;12.566;2024-03-02T01:24:20;71.00;;;26.40;;
37409;SDS011;23275;48.914;12.566;2024-03-02T01:26:46;59.35;;;24.80;;
37409;SDS011;23275;48.914;12.566;2024-03-02T01:29:11;58.00;;;24.67;;
37409;SDS011;23275;48.914;12.566;2024-03-02T01:31:37;59.15;;;24.98;;
37409;SDS011;23275;48.914;12.566;2024-03-02T01:34:02;52.10;;;24.15;;
37409;SDS011;23275;48.914;12.566;2024-03-02T01:36:28;61.63;;;27.25;;
37409;SDS011;23275;48.914;12.566;2024-03-02T01:38:53;63.83;;;25.48;;
37409;SDS011;23275;48.914;12.566;2024-03-02T01:41:19;63.78;;;26.88;;
37409;SDS011;23275;48.914;12.566;2024-03-02T01:43:44;54.53;;;26.25;;
37409;SDS011;23275;48.914;12.566;2024-03-02T01:46:10;62.72;;;26.75;;
37409;SDS011;23275;48.914;12.566;2024-03-02T01:48:36;64.57;;;25.83;;
37409;SDS011;23275;48.914;12.566;2024-03-02T01:51:01;61.67;;;24.92;;
37409;SDS011;23275;48.914;12.566;2024-03-02T01:53:27;61.35;;;26.15;;
37409;SDS011;23275;48.914;12.566;2024-03-02T01:55:53;56.25;;;25.83;;
37409;SDS011;23275;48.914;12.566;2024-03-02T01:58:18;55.40;;;24.52;;
37409;SDS011;23275;48.914;12.566;2024-03-02T02:00:44;60.22;;;25.88;;
37409;SDS011;23275;48.914;12.566;2024-03-02T02:03:10;63.30;;;24.70;;
37409;SDS011;23275;48.914;12.566;2024-03-02T02:05:36;59.45;;;25.95;;
37409;SDS011;23275;48.914;12.566;2024-03-02T02:08:01;61.15;;;25.23;;
37409;SDS011;23275;48.914;12.566;2024-03-02T02:10:27;60.45;;;25.25;;
37409;SDS011;23275;48.914;12.566;2024-03-02T02:12:53;63.03;;;27.27;;
37409;SDS011;23275;48.914;12.566;2024-03-02T02:17:47;68.53;;;27.80;;
37409;SDS011;23275;48.914;12.566;2024-03-02T02:20:13;71.40;;;27.33;;
37409;SDS011;23275;48.914;12.566;2024-03-02T02:22:39;74.47;;;27.48;;
37409;SDS011;23275;48.914;12.566;2024-03-02T02:25:04;74.07;;;26.73;;
37409;SDS011;23275;48.914;12.566;2024-03-02T02:27:30;69.43;;;28.88;;
37409;SDS011;23275;48.914;12.566;2024-03-02T02:29:56;67.03;;;28.40;;
37409;SDS011;23275;48.914;12.566;2024-03-02T02:32:21;71.60;;;27.95;;
37409;SDS011;23275;48.914;12.566;2024-03-02T02:34:51;70.40;;;28.38;;
37409;SDS011;23275;48.914;12.566;2024-03-02T02:37:17;76.20;;;28.85;;
37409;SDS011;23275;48.914;12.566;2024-03-02T02:39:43;73.60;;;29.63;;
37409;SDS011;23275;48.914;12.566;2024-03-02T02:42:08;78.50;;;30.60;;
37409;SDS011;23275;48.914;12.566;2024-03-02T02:44:34;71.88;;;28.80;;
37409;SDS011;23275;48.914;12.566;2024-03-02T02:47:00;85.35;;;30.35;;
37409;SDS011;23275;48.914;12.566;2024-03-02T02:49:25;78.05;;;30.52;;
37409;SDS011;23275;48.914;12.566;2024-03-02T02:51:51;74.85;;;30.25;;
37409;SDS011;23275;48.914;12.566;2024-03-02T02:54:17;76.93;;;30.88;;
37409;SDS011;23275;48.914;12.566;2024-03-02T02:56:42;75.15;;;29.88;;
37409;SDS011;23275;48.914;12.566;2024-03-02T02:59:08;76.25;;;31.77;;
37409;SDS011;23275;48.914;12.566;2024-03-02T03:01:33;82.28;;;31.02;;
37409;SDS011;23275;48.914;12.566;2024-03-02T03:06:06;84.07;;;31.58;;
37409;SDS011;23275;48.914;12.566;2024-03-02T03:08:32;77.28;;;32.80;;
37409;SDS011;23275;48.914;12.566;2024-03-02T03:10:57;83.05;;;31.48;;
37409;SDS011;23275;48.914;12.566;2024-03-02T03:13:23;81.13;;;32.15;;
37409;SDS011;23275;48.914;12.566;2024-03-02T03:15:49;89.97;;;31.05;;
37409;SDS011;23275;48.914;12.566;2024-03-02T03:18:14;88.40;;;33.00;;
37409;SDS011;23275;48.914;12.566;2024-03-02T03:20:40;84.32;;;31.88;;
37409;SDS011;23275;48.914;12.566;2024-03-02T03:23:05;84.63;;;34.38;;
37409;SDS011;23275;48.914;12.566;2024-03-02T03:25:31;77.53;;;32.28;;
37409;SDS011;23275;48.914;12.566;2024-03-02T03:27:56;82.30;;;32.63;;
37409;SDS011;23275;48.914;12.566;2024-03-02T03:30:22;85.45;;;31.67;;
37409;SDS011;23275;48.914;12.566;2024-03-02T03:32:48;90.93;;;32.95;;
37409;SDS011;23275;48.914;12.566;2024-03-02T03:35:13;87.63;;;34.40;;
37409;SDS011;23275;48.914;12.566;2024-03-02T03:37:40;78.55;;;30.65;;
37409;SDS011;23275;48.914;12.566;2024-03-02T03:40:06;83.45;;;33.10;;
37409;SDS011;23275;48.914;12.566;2024-03-02T03:42:38;68.18;;;29.60;;
37409;SDS011;23275;48.914;12.566;2024-03-02T03:45:04;80.80;;;31.02;;
37409;SDS011;23275;48.914;12.566;2024-03-02T03:47:33;84.65;;;31.73;;
37409;SDS011;23275;48.914;12.566;2024-03-02T03:49:58;80.53;;;31.55;;
37409;SDS011;23275;48.914;12.566;2024-03-02T03:52:24;77.13;;;32.13;;
37409;SDS011;23275;48.914;12.566;2024-03-02T03:54:49;86.65;;;32.47;;
37409;SDS011;23275;48.914;12.566;2024-03-02T03:57:15;83.40;;;31.42;;
37409;SDS011;23275;48.914;12.566;2024-03-02T03:59:41;82.13;;;32.08;;
37409;SDS011;23275;48.914;12.566;2024-03-02T04:02:07;93.82;;;34.47;;
37409;SDS011;23275;48.914;12.566;2024-03-02T04:04:33;89.53;;;33.60;;
37409;SDS011;23275;48.914;12.566;2024-03-02T04:06:59;85.85;;;32.22;;
37409;SDS011;23275;48.914;12.566;2024-03-02T04:09:25;89.10;;;32.63;;
37409;SDS011;23275;48.914;12.566;2024-03-02T04:11:51;93.28;;;33.28;;
37409;SDS011;23275;48.914;12.566;2024-03-02T04:14:16;82.45;;;31.75;;
37409;SDS011;23275;48.914;12.566;2024-03-02T04:16:42;92.25;;;31.67;;
37409;SDS011;23275;48.914;12.566;2024-03-02T04:19:08;83.15;;;30.90;;
37409;SDS011;23275;48.914;12.566;2024-03-02T04:21:33;88.40;;;31.45;;
37409;SDS011;23275;48.914;12.566;2024-03-02T04:23:59;74.55;;;29.33;;
37409;SDS011;23275;48.914;12.566;2024-03-02T04:26:27;83.35;;;31.70;;
37409;SDS011;23275;48.914;12.566;2024-03-02T04:28:53;79.45;;;30.90;;
37409;SDS011;23275;48.914;12.566;2024-03-02T04:31:19;87.35;;;32.58;;
37409;SDS011;23275;48.914;12.566;2024-03-02T04:33:45;75.88;;;29.85;;
37409;SDS011;23275;48.914;12.566;2024-03-02T04:36:10;73.55;;;30.77;;
37409;SDS011;23275;48.914;12.566;2024-03-02T04:38:36;74.15;;;30.13;;
37409;SDS011;23275;48.914;12.566;2024-03-02T04:41:03;75.50;;;30.52;;
37409;SDS011;23275;48.914;12.566;2024-03-02T04:43:29;80.80;;;31.67;;
37409;SDS011;23275;48.914;12.566;2024-03-02T04:45:56;79.68;;;32.75;;
37409;SDS011;23275;48.914;12.566;2024-03-02T04:48:22;87.63;;;33.83;;
37409;SDS011;23275;48.914;12.566;2024-03-02T04:50:48;87.07;;;32.40;;
37409;SDS011;23275;48.914;12.566;2024-03-02T04:53:13;82.25;;;32.00;;
37409;SDS011;23275;48.914;12.566;2024-03-02T04:55:39;86.10;;;32.70;;
37409;SDS011;23275;48.914;12.566;2024-03-02T04:58:05;82.72;;;31.10;;
37409;SDS011;23275;48.914;12.566;2024-03-02T05:00:31;86.15;;;33.28;;
37409;SDS011;23275;48.914;12.566;2024-03-02T05:02:57;88.20;;;34.15;;
37409;SDS011;23275;48.914;12.566;2024-03-02T05:05:22;81.32;;;30.80;;
37409;SDS011;23275;48.914;12.566;2024-03-02T05:07:48;82.35;;;31.13;;
37409;SDS011;23275;48.914;12.566;2024-03-02T05:10:13;89.60;;;31.90;;
37409;SDS011;23275;48.914;12.566;2024-03-02T05:12:39;91.10;;;34.30;;
37409;SDS011;23275;48.914;12.566;2024-03-02T05:15:07;79.47;;;32.45;;
37409;SDS011;23275;48.914;12.566;2024-03-02T05:17:35;84.75;;;34.33;;
37409;SDS011;23275;48.914;12.566;2024-03-02T05:20:00;83.13;;;32.15;;
37409;SDS011;23275;48.914;12.566;2024-03-02T05:22:26;90.93;;;33.67;;
37409;SDS011;23275;48.914;12.566;2024-03-02T05:24:52;104.00;;;35.05;;
37409;SDS011;23275;48.914;12.566;2024-03-02T05:27:18;88.53;;;31.65;;
37409;SDS011;23275;48.914;12.566;2024-03-02T05:29:43;88.63;;;32.78;;
37409;SDS011;23275;48.914;12.566;2024-03-02T05:32:09;90.65;;;32.88;;
37409;SDS011;23275;48.914;12.566;2024-03-02T05:34:34;97.97;;;34.90;;
37409;SDS011;23275;48.914;12.566;2024-03-02T05:37:00;97.40;;;35.00;;
37409;SDS011;23275;48.914;12.566;2024-03-02T05:39:26;106.70;;;35.22;;
37409;SDS011;23275;48.914;12.566;2024-03-02T05:41:52;109.95;;;37.58;;
37409;SDS011;23275;48.914;12.566;2024-03-02T05:44:18;110.55;;;36.65;;
37409;SDS011;23275;48.914;12.566;2024-03-02T05:46:44;102.10;;;37.33;;
37409;SDS011;23275;48.914;12.566;2024-03-02T05:49:11;118.57;;;39.97;;
37409;SDS011;23275;48.914;12.566;2024-03-02T05:51:36;102.07;;;36.22;;
37409;SDS011;23275;48.914;12.566;2024-03-02T05:54:02;110.28;;;35.88;;
37409;SDS011;23275;48.914;12.566;2024-03-02T05:56:28;97.22;;;36.20;;
37409;SDS011;23275;48.914;12.566;2024-03-02T05:58:53;112.20;;;37.13;;
37409;SDS011;23275;48.914;12.566;2024-03-02T06:01:41;107.20;;;36.92;;
37409;SDS011;23275;48.914;12.566;2024-03-02T06:04:08;117.80;;;36.28;;
37409;SDS011;23275;48.914;12.566;2024-03-02T06:06:36;102.97;;;36.47;;
37409;SDS011;23275;48.914;12.566;2024-03-02T06:09:03;119.10;;;38.92;;
37409;SDS011;23275;48.914;12.566;2024-03-02T06:11:40;116.30;;;38.53;;
37409;SDS011;23275;48.914;12.566;2024-03-02T06:14:06;121.15;;;40.08;;
37409;SDS011;23275;48.914;12.566;2024-03-02T06:16:33;118.53;;;39.10;;
37409;SDS011;23275;48.914;12.566;2024-03-02T06:18:59;123.78;;;41.25;;
37409;SDS011;23275;48.914;12.566;2024-03-02T06:21:25;116.38;;;39.42;;
37409;SDS011;23275;48.914;12.566;2024-03-02T06:23:51;117.07;;;39.60;;
37409;SDS011;23275;48.914;12.566;2024-03-02T06:26:17;125.85;;;38.85;;
37409;SDS011;23275;48.914;12.566;2024-03-02T06:28:43;115.65;;;38.78;;
37409;SDS011;23275;48.914;12.566;2024-03-02T06:31:09;127.07;;;39.90;;
37409;SDS011;23275;48.914;12.566;2024-03-02T06:33:35;115.95;;;39.65;;
37409;SDS011;23275;48.914;12.566;2024-03-02T06:36:01;125.18;;;38.70;;
37409;SDS011;23275;48.914;12.566;2024-03-02T06:38:26;136.02;;;41.33;;
37409;SDS011;23275;48.914;12.566;2024-03-02T06:40:52;116.82;;;38.53;;
37409;SDS011;23275;48.914;12.566;2024-03-02T06:43:18;124.72;;;38.60;;
37409;SDS011;23275;48.914;12.566;2024-03-02T06:45:48;143.13;;;41.08;;
37409;SDS011;23275;48.914;12.566;2024-03-02T06:48:14;122.93;;;37.92;;
37409;SDS011;23275;48.914;12.566;2024-03-02T06:50:43;126.67;;;40.60;;
37409;SDS011;23275;48.914;12.566;2024-03-02T06:53:09;132.25;;;40.33;;
37409;SDS011;23275;48.914;12.566;2024-03-02T06:55:34;121.05;;;40.15;;
37409;SDS011;23275;48.914;12.566;2024-03-02T06:58:00;120.60;;;38.95;;
37409;SDS011;23275;48.914;12.566;2024-03-02T07:00:25;112.10;;;38.67;;
37409;SDS011;23275;48.914;12.566;2024-03-02T07:02:51;118.43;;;38.65;;
37409;SDS011;23275;48.914;12.566;2024-03-02T07:05:17;120.70;;;38.90;;
37409;SDS011;23275;48.914;12.566;2024-03-02T07:07:42;106.93;;;37.70;;
37409;SDS011;23275;48.914;12.566;2024-03-02T07:10:08;108.53;;;37.40;;
37409;SDS011;23275;48.914;12.566;2024-03-02T07:12:34;119.20;;;39.13;;
37409;SDS011;23275;48.914;12.566;2024-03-02T07:14:59;108.78;;;37.38;;
37409;SDS011;23275;48.914;12.566;2024-03-02T07:17:28;125.47;;;39.85;;
37409;SDS011;23275;48.914;12.566;2024-03-02T07:19:57;110.45;;;37.35;;
37409;SDS011;23275;48.914;12.566;2024-03-02T07:22:23;115.30;;;37.70;;
37409;SDS011;23275;48.914;12.566;2024-03-02T07:24:49;111.70;;;39.15;;
37409;SDS011;23275;48.914;12.566;2024-03-02T07:27:15;105.95;;;38.42;;
37409;SDS011;23275;48.914;12.566;2024-03-02T07:29:41;116.97;;;39.40;;
37409;SDS011;23275;48.914;12.566;2024-03-02T07:32:08;106.93;;;37.75;;
37409;SDS011;23275;48.914;12.566;2024-03-02T07:34:34;102.00;;;37.50;;
37409;SDS011;23275;48.914;12.566;2024-03-02T07:37:00;102.38;;;36.67;;
37409;SDS011;23275;48.914;12.566;2024-03-02T07:39:26;104.40;;;36.40;;
37409;SDS011;23275;48.914;12.566;2024-03-02T07:41:51;91.85;;;34.80;;
37409;SDS011;23275;48.914;12.566;2024-03-02T07:44:17;100.40;;;36.63;;
37409;SDS011;23275;48.914;12.566;2024-03-02T07:46:44;98.63;;;36.60;;
37409;SDS011;23275;48.914;12.566;2024-03-02T07:49:17;87.13;;;33.03;;
37409;SDS011;23275;48.914;12.566;2024-03-02T07:51:45;83.88;;;33.47;;
37409;SDS011;23275;48.914;12.566;2024-03-02T07:54:11;90.70;;;36.58;;
37409;SDS011;23275;48.914;12.566;2024-03-02T07:56:37;84.90;;;33.33;;
37409;SDS011;23275;48.914;12.566;2024-03-02T07:59:03;82.78;;;34.15;;
37409;SDS011;23275;48.914;12.566;2024-03-02T08:01:29;82.80;;;32.33;;
37409;SDS011;23275;48.914;12.566;2024-03-02T08:03:58;78.85;;;32.83;;
37409;SDS011;23275;48.914;12.566;2024-03-02T08:06:25;84.00;;;33.92;;
37409;SDS011;23275;48.914;12.566;2024-03-02T08:08:56;73.35;;;31.55;;
37409;SDS011;23275;48.914;12.566;2024-03-02T08:11:23;79.22;;;31.60;;
37409;SDS011;23275;48.914;12.566;2024-03-02T08:13:48;86.70;;;33.10;;
37409;SDS011;23275;48.914;12.566;2024-03-02T08:16:17;75.75;;;31.90;;
37409;SDS011;23275;48.914;12.566;2024-03-02T08:18:45;83.03;;;34.88;;
37409;SDS011;23275;48.914;12.566;2024-03-02T08:21:11;83.97;;;33.40;;
37409;SDS011;23275;48.914;12.566;2024-03-02T08:23:37;84.43;;;33.17;;
37409;SDS011;23275;48.914;12.566;2024-03-02T08:26:03;80.30;;;32.35;;
37409;SDS011;23275;48.914;12.566;2024-03-02T08:28:29;83.68;;;33.10;;
37409;SDS011;23275;48.914;12.566;2024-03-02T08:30:55;83.28;;;32.85;;
37409;SDS011;23275;48.914;12.566;2024-03-02T08:33:21;85.18;;;34.30;;
37409;SDS011;23275;48.914;12.566;2024-03-02T08:35:46;89.20;;;33.65;;
37409;SDS011;23275;48.914;12.566;2024-03-02T08:38:12;84.40;;;33.05;;
37409;SDS011;23275;48.914;12.566;2024-03-02T08:40:37;85.25;;;32.38;;
37409;SDS011;23275;48.914;12.566;2024-03-02T08:43:03;80.00;;;33.55;;
37409;SDS011;23275;48.914;12.566;2024-03-02T08:45:28;77.85;;;30.98;;
37409;SDS011;23275;48.914;12.566;2024-03-02T08:47:54;83.25;;;32.90;;
37409;SDS011;23275;48.914;12.566;2024-03-02T08:50:20;75.82;;;32.65;;
37409;SDS011;23275;48.914;12.566;2024-03-02T08:52:45;65.90;;;30.35;;
37409;SDS011;23275;48.914;12.566;2024-03-02T08:55:11;65.78;;;29.05;;
37409;SDS011;23275;48.914;12.566;2024-03-02T08:57:36;68.75;;;29.15;;
37409;SDS011;23275;48.914;12.566;2024-03-02T09:00:02;61.67;;;27.83;;
37409;SDS011;23275;48.914;12.566;2024-03-02T09:02:30;55.80;;;25.80;;
37409;SDS011;23275;48.914;12.566;2024-03-02T09:04:56;61.05;;;29.55;;
37409;SDS011;23275;48.914;12.566;2024-03-02T09:07:22;62.25;;;27.90;;
37409;SDS011;23275;48.914;12.566;2024-03-02T09:09:48;58.70;;;27.63;;
37409;SDS011;23275;48.914;12.566;2024-03-02T09:12:13;64.32;;;28.15;;
37409;SDS011;23275;48.914;12.566;2024-03-02T09:14:40;61.30;;;29.00;;
37409;SDS011;23275;48.914;12.566;2024-03-02T09:17:06;52.10;;;27.67;;
37409;SDS011;23275;48.914;12.566;2024-03-02T09:19:31;62.67;;;28.45;;
37409;SDS011;23275;48.914;12.566;2024-03-02T09:21:57;57.42;;;25.52;;
37409;SDS011;23275;48.914;12.566;2024-03-02T09:24:23;55.97;;;27.08;;
37409;SDS011;23275;48.914;12.566;2024-03-02T09:26:49;53.30;;;25.65;;
37409;SDS011;23275;48.914;12.566;2024-03-02T09:29:15;49.25;;;23.42;;
37409;SDS011;23275;48.914;12.566;2024-03-02T09:31:41;45.10;;;21.80;;
37409;SDS011;23275;48.914;12.566;2024-03-02T09:34:07;44.88;;;22.05;;
37409;SDS011;23275;48.914;12.566;2024-03-02T09:36:32;41.17;;;21.75;;
37409;SDS011;23275;48.914;12.566;2024-03-02T09:38:58;39.17;;;20.45;;
37409;SDS011;23275;48.914;12.566;2024-03-02T09:41:24;38.53;;;19.65;;
37409;SDS011;23275;48.914;12.566;2024-03-02T09:43:50;34.47;;;18.05;;
37409;SDS011;23275;48.914;12.566;2024-03-02T09:46:15;35.78;;;18.77;;
37409;SDS011;23275;48.914;12.566;2024-03-02T09:48:41;31.73;;;17.65;;
37409;SDS011;23275;48.914;12.566;2024-03-02T09:51:09;32.67;;;16.40;;
37409;SDS011;23275;48.914;12.566;2024-03-02T09:53:36;29.35;;;15.77;;
37409;SDS011;23275;48.914;12.566;2024-03-02T09:56:02;32.25;;;16.10;;
37409;SDS011;23275;48.914;12.566;2024-03-02T09:58:28;29.50;;;15.70;;
37409;SDS011;23275;48.914;12.566;2024-03-02T10:00:54;27.25;;;14.63;;
37409;SDS011;23275;48.914;12.566;2024-03-02T10:03:19;28.55;;;14.68;;
37409;SDS011;23275;48.914;12.566;2024-03-02T10:05:46;29.35;;;16.20;;
37409;SDS011;23275;48.914;12.566;2024-03-02T10:08:11;23.65;;;13.02;;
37409;SDS011;23275;48.914;12.566;2024-03-02T10:10:37;25.38;;;14.20;;
37409;SDS011;23275;48.914;12.566;2024-03-02T10:13:11;29.08;;;14.80;;
37409;SDS011;23275;48.914;12.566;2024-03-02T10:15:38;22.98;;;13.27;;
37409;SDS011;23275;48.914;12.566;2024-03-02T10:18:08;20.90;;;12.47;;
37409;SDS011;23275;48.914;12.566;2024-03-02T10:20:37;22.00;;;12.77;;
37409;SDS011;23275;48.914;12.566;2024-03-02T10:23:11;22.17;;;13.15;;
37409;SDS011;23275;48.914;12.566;2024-03-02T10:25:37;21.77;;;12.82;;
37409;SDS011;23275;48.914;12.566;2024-03-02T10:28:03;22.17;;;13.05;;
37409;SDS011;23275;48.914;12.566;2024-03-02T10:30:33;23.83;;;13.40;;
37409;SDS011;23275;48.914;12.566;2024-03-02T10:33:00;21.95;;;13.07;;
37409;SDS011;23275;48.914;12.566;2024-03-02T10:35:30;25.45;;;13.13;;
37409;SDS011;23275;48.914;12.566;2024-03-02T10:37:58;20.00;;;12.32;;
37409;SDS011;23275;48.914;12.566;2024-03-02T10:40:26;21.42;;;12.95;;
37409;SDS011;23275;48.914;12.566;2024-03-02T10:42:51;23.83;;;13.07;;
37409;SDS011;23275;48.914;12.566;2024-03-02T10:45:17;22.77;;;13.85;;
37409;SDS011;23275;48.914;12.566;2024-03-02T10:47:48;23.02;;;13.35;;
37409;SDS011;23275;48.914;12.566;2024-03-02T10:50:15;20.60;;;13.57;;
37409;SDS011;23275;48.914;12.566;2024-03-02T10:52:40;23.98;;;14.00;;
37409;SDS011;23275;48.914;12.566;2024-03-02T10:55:07;21.80;;;13.80;;
37409;SDS011;23275;48.914;12.566;2024-03-02T11:00:19;23.00;;;13.93;;
37409;SDS011;23275;48.914;12.566;2024-03-02T11:02:50;21.35;;;13.57;;
37409;SDS011;23275;48.914;12.566;2024-03-02T11:05:19;20.58;;;13.32;;
37409;SDS011;23275;48.914;12.566;2024-03-02T11:08:06;20.50;;;12.90;;
37409;SDS011;23275;48.914;12.566;2024-03-02T11:10:34;20.98;;;13.20;;
37409;SDS011;23275;48.914;12.566;2024-03-02T11:13:02;25.40;;;14.60;;
37409;SDS011;23275;48.914;12.566;2024-03-02T11:15:34;23.83;;;13.73;;
37409;SDS011;23275;48.914;12.566;2024-03-02T11:18:04;24.67;;;13.95;;
37409;SDS011;23275;48.914;12.566;2024-03-02T11:20:33;25.05;;;13.93;;
37409;SDS011;23275;48.914;12.566;2024-03-02T11:23:07;21.60;;;12.85;;
37409;SDS011;23275;48.914;12.566;2024-03-02T11:25:33;24.38;;;14.07;;
37409;SDS011;23275;48.914;12.566;2024-03-02T11:28:00;28.35;;;14.75;;
37409;SDS011;23275;48.914;12.566;2024-03-02T11:32:59;24.90;;;13.63;;
37409;SDS011;23275;48.914;12.566;2024-03-02T11:35:25;23.95;;;13.85;;
37409;SDS011;23275;48.914;12.566;2024-03-02T11:37:51;26.30;;;13.13;;
37409;SDS011;23275;48.914;12.566;2024-03-02T11:40:26;23.00;;;13.05;;
37409;SDS011;23275;48.914;12.566;2024-03-02T11:42:53;22.00;;;12.48;;
37409;SDS011;23275;48.914;12.566;2024-03-02T11:45:25;25.40;;;11.95;;
37409;SDS011;23275;48.914;12.566;2024-03-02T11:47:54;25.98;;;13.10;;
37409;SDS011;23275;48.914;12.566;2024-03-02T11:50:33;25.27;;;13.87;;
37409;SDS011;23275;48.914;12.566;2024-03-02T11:53:02;24.38;;;14.10;;
37409;SDS011;23275;48.914;12.566;2024-03-02T11:55:34;24.13;;;12.52;;
37409;SDS011;23275;48.914;12.566;2024-03-02T11:58:11;21.90;;;12.25;;
37409;SDS011;23275;48.914;12.566;2024-03-02T12:00:45;24.70;;;12.75;;
37409;SDS011;23275;48.914;12.566;2024-03-02T12:03:14;26.08;;;13.90;;
37409;SDS011;23275;48.914;12.566;2024-03-02T12:05:40;23.70;;;12.27;;
37409;SDS011;23275;48.914;12.566;2024-03-02T12:08:07;26.48;;;12.88;;
37409;SDS011;23275;48.914;12.566;2024-03-02T12:10:33;26.73;;;15.40;;
37409;SDS011;23275;48.914;12.566;2024-03-02T12:13:01;31.42;;;15.05;;
37409;SDS011;23275;48.914;12.566;2024-03-02T12:15:29;27.52;;;14.55;;
37409;SDS011;23275;48.914;12.566;2024-03-02T12:17:56;25.92;;;13.98;;
37409;SDS011;23275;48.914;12.566;2024-03-02T12:20:23;25.85;;;12.88;;
37409;SDS011;23275;48.914;12.566;2024-03-02T12:22:50;24.35;;;13.77;;
37409;SDS011;23275;48.914;12.566;2024-03-02T12:25:17;28.40;;;13.90;;
37409;SDS011;23275;48.914;12.566;2024-03-02T12:27:44;23.52;;;12.95;;
37409;SDS011;23275;48.914;12.566;2024-03-02T12:30:11;24.23;;;13.65;;
37409;SDS011;23275;48.914;12.566;2024-03-02T12:32:38;23.00;;;12.40;;
37409;SDS011;23275;48.914;12.566;2024-03-02T12:35:05;25.50;;;14.15;;
37409;SDS011;23275;48.914;12.566;2024-03-02T12:37:31;25.25;;;12.70;;
37409;SDS011;23275;48.914;12.566;2024-03-02T12:39:56;31.10;;;14.48;;
37409;SDS011;23275;48.914;12.566;2024-03-02T12:42:23;26.48;;;13.55;;
37409;SDS011;23275;48.914;12.566;2024-03-02T12:44:51;24.35;;;13.20;;
37409;SDS011;23275;48.914;12.566;2024-03-02T12:47:19;26.27;;;13.30;;
37409;SDS011;23275;48.914;12.566;2024-03-02T12:49:45;30.15;;;14.13;;
37409;SDS011;23275;48.914;12.566;2024-03-02T12:52:14;28.52;;;15.13;;
37409;SDS011;23275;48.914;12.566;2024-03-02T12:54:39;30.63;;;15.65;;
37409;SDS011;23275;48.914;12.566;2024-03-02T12:57:05;26.38;;;14.20;;
37409;SDS011;23275;48.914;12.566;2024-03-02T12:59:31;23.63;;;12.88;;
37409;SDS011;23275;48.914;12.566;2024-03-02T13:01:56;26.30;;;13.98;;
37409;SDS011;23275;48.914;12.566;2024-03-02T13:04:24;26.50;;;13.05;;
37409;SDS011;23275;48.914;12.566;2024-03-02T13:06:51;26.80;;;13.13;;
37409;SDS011;23275;48.914;12.566;2024-03-02T13:09:17;27.70;;;14.13;;
37409;SDS011;23275;48.914;12.566;2024-03-02T13:11:43;27.00;;;14.07;;
37409;SDS011;23275;48.914;12.566;2024-03-02T13:14:10;31.85;;;14.45;;
37409;SDS011;23275;48.914;12.566;2024-03-02T13:16:42;29.35;;;15.50;;
37409;SDS011;23275;48.914;12.566;2024-03-02T13:19:08;33.15;;;14.95;;
37409;SDS011;23275;48.914;12.566;2024-03-02T13:21:37;27.02;;;15.18;;
37409;SDS011;23275;48.914;12.566;2024-03-02T13:24:03;28.90;;;14.30;;
37409;SDS011;23275;48.914;12.566;2024-03-02T13:26:29;33.97;;;15.30;;
37409;SDS011;23275;48.914;12.566;2024-03-02T13:28:55;30.38;;;15.32;;
37409;SDS011;23275;48.914;12.566;2024-03-02T13:31:21;33.85;;;16.13;;
37409;SDS011;23275;48.914;12.566;2024-03-02T13:33:47;29.63;;;15.25;;
37409;SDS011;23275;48.914;12.566;2024-03-02T13:36:12;29.83;;;14.48;;
37409;SDS011;23275;48.914;12.566;2024-03-02T13:38:38;30.88;;;15.45;;
37409;SDS011;23275;48.914;12.566;2024-03-02T13:41:04;25.33;;;13.35;;
37409;SDS011;23275;48.914;12.566;2024-03-02T13:43:29;27.25;;;13.32;;
37409;SDS011;23275;48.914;12.566;2024-03-02T13:45:59;27.15;;;14.27;;
37409;SDS011;23275;48.914;12.566;2024-03-02T13:48:25;30.23;;;14.20;;
37409;SDS011;23275;48.914;12.566;2024-03-02T13:50:51;27.23;;;13.00;;
37409;SDS011;23275;48.914;12.566;2024-03-02T13:53:18;25.45;;;14.35;;
37409;SDS011;23275;48.914;12.566;2024-03-02T13:55:44;26.67;;;14.32;;
37409;SDS011;23275;48.914;12.566;2024-03-02T13:58:10;30.00;;;14.10;;
37409;SDS011;23275;48.914;12.566;2024-03-02T14:00:36;27.13;;;13.48;;
37409;SDS011;23275;48.914;12.566;2024-03-02T14:03:03;28.00;;;15.07;;
37409;SDS011;23275;48.914;12.566;2024-03-02T14:05:30;26.02;;;13.82;;
37409;SDS011;23275;48.914;12.566;2024-03-02T14:07:56;23.77;;;12.88;;
37409;SDS011;23275;48.914;12.566;2024-03-02T14:10:22;23.70;;;12.00;;
37409;SDS011;23275;48.914;12.566;2024-03-02T14:12:48;23.40;;;11.90;;
37409;SDS011;23275;48.914;12.566;2024-03-02T14:15:14;19.52;;;10.48;;